sensor_id;sensor_type;location;lat;lon;timestamp;pressure;altitude;pressure_sealevel;temperature;humidity
69455;BME280;56660;51.986;5.930;2022-07-12T00:01:46;102451.88;;;18.40;64.77
69455;BME280;56660;51.986;5.930;2022-07-12T00:04:12;102463.84;;;18.38;64.51
69455;BME280;56660;51.986;5.930;2022-07-12T00:06:38;102461.47;;;18.35;64.67
69455;BME280;56660;51.986;5.930;2022-07-12T00:09:03;102456.34;;;18.31;64.67
69455;BME280;56660;51.986;5.930;2022-07-12T00:11:31;102449.56;;;18.27;64.82
69455;BME280;56660;51.986;5.930;2022-07-12T00:14:21;102447.16;;;18.24;64.71
69455;BME280;56660;51.986;5.930;2022-07-12T00:16:51;102443.06;;;18.20;64.88
69455;BME280;56660;51.986;5.930;2022-07-12T00:19:20;102439.47;;;18.20;64.96
69455;BME280;56660;51.986;5.930;2022-07-12T00:21:47;102437.09;;;18.17;65.00
69455;BME280;56660;51.986;5.930;2022-07-12T00:24:13;102438.09;;;18.16;65.17
69455;BME280;56660;51.986;5.930;2022-07-12T00:26:40;102434.53;;;18.15;65.04
69455;BME280;56660;51.986;5.930;2022-07-12T00:29:09;102434.53;;;18.15;65.28
69455;BME280;56660;51.986;5.930;2022-07-12T00:31:37;102429.44;;;18.12;65.26
69455;BME280;56660;51.986;5.930;2022-07-12T00:34:05;102434.84;;;18.12;65.33
69455;BME280;56660;51.986;5.930;2022-07-12T00:36:32;102432.81;;;18.14;65.55
69455;BME280;56660;51.986;5.930;2022-07-12T00:39:02;102429.44;;;18.12;65.59
69455;BME280;56660;51.986;5.930;2022-07-12T00:41:50;102428.19;;;18.07;65.75
69455;BME280;56660;51.986;5.930;2022-07-12T00:44:19;102427.66;;;18.03;65.45
69455;BME280;56660;51.986;5.930;2022-07-12T00:46:45;102421.53;;;18.01;65.39
69455;BME280;56660;51.986;5.930;2022-07-12T00:49:35;102427.13;;;17.99;66.10
69455;BME280;56660;51.986;5.930;2022-07-12T00:52:03;102429.13;;;17.97;65.75
69455;BME280;56660;51.986;5.930;2022-07-12T00:54:30;102421.31;;;17.94;65.73
69455;BME280;56660;51.986;5.930;2022-07-12T00:57:04;102426.88;;;17.93;65.63
69455;BME280;56660;51.986;5.930;2022-07-12T00:59:51;102431.75;;;17.89;65.61
69455;BME280;56660;51.986;5.930;2022-07-12T01:02:23;102430.22;;;17.87;65.83
69455;BME280;56660;51.986;5.930;2022-07-12T01:04:54;102422.25;;;17.85;65.84
69455;BME280;56660;51.986;5.930;2022-07-12T01:07:25;102432.22;;;17.85;65.91
69455;BME280;56660;51.986;5.930;2022-07-12T01:09:58;102442.34;;;17.83;66.04
69455;BME280;56660;51.986;5.930;2022-07-12T01:12:25;102440.94;;;17.79;65.85
69455;BME280;56660;51.986;5.930;2022-07-12T01:14:59;102437.69;;;17.75;65.73
69455;BME280;56660;51.986;5.930;2022-07-12T01:17:45;102437.16;;;17.72;65.97
69455;BME280;56660;51.986;5.930;2022-07-12T01:20:13;102433.91;;;17.68;66.10
69455;BME280;56660;51.986;5.930;2022-07-12T01:23:01;102444.03;;;17.66;65.96
69455;BME280;56660;51.986;5.930;2022-07-12T01:25:30;102455.81;;;17.65;66.23
69455;BME280;56660;51.986;5.930;2022-07-12T01:28:03;102453.41;;;17.62;66.17
69455;BME280;56660;51.986;5.930;2022-07-12T01:30:33;102457.81;;;17.63;66.02
69455;BME280;56660;51.986;5.930;2022-07-12T01:33:00;102454.56;;;17.59;66.12
69455;BME280;56660;51.986;5.930;2022-07-12T01:35:27;102463.13;;;17.55;66.27
69455;BME280;56660;51.986;5.930;2022-07-12T01:37:54;102465.44;;;17.50;66.14
69455;BME280;56660;51.986;5.930;2022-07-12T01:40:23;102466.59;;;17.47;65.97
69455;BME280;56660;51.986;5.930;2022-07-12T01:42:50;102473.16;;;17.45;66.71
69455;BME280;56660;51.986;5.930;2022-07-12T01:45:16;102480.72;;;17.41;66.34
69455;BME280;56660;51.986;5.930;2022-07-12T01:47:50;102475.47;;;17.40;66.21
69455;BME280;56660;51.986;5.930;2022-07-12T01:50:19;102474.91;;;17.36;66.13
69455;BME280;56660;51.986;5.930;2022-07-12T01:52:51;102468.09;;;17.32;66.27
69455;BME280;56660;51.986;5.930;2022-07-12T01:55:22;102469.25;;;17.29;66.45
69455;BME280;56660;51.986;5.930;2022-07-12T01:57:50;102474.09;;;17.26;66.35
69455;BME280;56660;51.986;5.930;2022-07-12T02:00:18;102478.66;;;17.25;66.45
69455;BME280;56660;51.986;5.930;2022-07-12T02:02:47;102473.69;;;17.21;66.32
69455;BME280;56660;51.986;5.930;2022-07-12T02:05:12;102478.41;;;17.19;66.46
69455;BME280;56660;51.986;5.930;2022-07-12T02:07:46;102474.16;;;17.16;66.39
69455;BME280;56660;51.986;5.930;2022-07-12T02:10:15;102477.84;;;17.15;66.56
69455;BME280;56660;51.986;5.930;2022-07-12T02:12:44;102478.00;;;17.14;66.43
69455;BME280;56660;51.986;5.930;2022-07-12T02:15:12;102469.34;;;17.10;66.57
69455;BME280;56660;51.986;5.930;2022-07-12T02:17:44;102464.06;;;17.09;66.78
69455;BME280;56660;51.986;5.930;2022-07-12T02:20:12;102463.38;;;17.07;66.54
69455;BME280;56660;51.986;5.930;2022-07-12T02:22:39;102461.81;;;17.04;66.58
69455;BME280;56660;51.986;5.930;2022-07-12T02:25:09;102463.81;;;17.02;66.62
69455;BME280;56660;51.986;5.930;2022-07-12T02:27:57;102462.25;;;16.99;66.77
69455;BME280;56660;51.986;5.930;2022-07-12T02:30:51;102463.81;;;17.02;67.06
69455;BME280;56660;51.986;5.930;2022-07-12T02:33:29;102464.97;;;16.99;66.94
69455;BME280;56660;51.986;5.930;2022-07-12T02:35:55;102454.44;;;16.96;67.04
69455;BME280;56660;51.986;5.930;2022-07-12T02:38:21;102455.31;;;16.97;67.17
69455;BME280;56660;51.986;5.930;2022-07-12T02:40:47;102458.84;;;16.97;67.42
69455;BME280;56660;51.986;5.930;2022-07-12T02:43:15;102452.44;;;16.98;67.15
69455;BME280;56660;51.986;5.930;2022-07-12T02:45:41;102461.56;;;16.97;67.48
69455;BME280;56660;51.986;5.930;2022-07-12T02:48:08;102458.84;;;16.97;67.32
69455;BME280;56660;51.986;5.930;2022-07-12T02:50:34;102456.16;;;16.97;67.36
69455;BME280;56660;51.986;5.930;2022-07-12T02:53:00;102458.16;;;16.95;67.26
69455;BME280;56660;51.986;5.930;2022-07-12T02:55:26;102458.16;;;16.95;67.28
69455;BME280;56660;51.986;5.930;2022-07-12T02:57:52;102458.44;;;16.92;67.34
69455;BME280;56660;51.986;5.930;2022-07-12T03:00:21;102465.84;;;16.90;67.36
69455;BME280;56660;51.986;5.930;2022-07-12T03:02:47;102464.13;;;16.89;67.17
69455;BME280;56660;51.986;5.930;2022-07-12T03:05:21;102458.88;;;16.88;67.47
69455;BME280;56660;51.986;5.930;2022-07-12T03:07:48;102461.72;;;16.86;67.59
69455;BME280;56660;51.986;5.930;2022-07-12T03:10:14;102458.63;;;16.81;67.46
69455;BME280;56660;51.986;5.930;2022-07-12T03:12:41;102471.41;;;16.79;67.61
69455;BME280;56660;51.986;5.930;2022-07-12T03:15:07;102463.59;;;16.76;67.84
69455;BME280;56660;51.986;5.930;2022-07-12T03:17:36;102469.00;;;16.76;67.70
69455;BME280;56660;51.986;5.930;2022-07-12T03:20:02;102456.66;;;16.74;67.82
69455;BME280;56660;51.986;5.930;2022-07-12T03:22:46;102459.22;;;16.75;67.78
69455;BME280;56660;51.986;5.930;2022-07-12T03:25:12;102460.19;;;16.74;67.98
69455;BME280;56660;51.986;5.930;2022-07-12T03:27:41;102460.06;;;16.76;68.19
69455;BME280;56660;51.986;5.930;2022-07-12T03:30:10;102460.06;;;16.76;68.25
69455;BME280;56660;51.986;5.930;2022-07-12T03:32:39;102455.50;;;16.76;68.34
69455;BME280;56660;51.986;5.930;2022-07-12T03:35:06;102451.81;;;16.77;68.37
69455;BME280;56660;51.986;5.930;2022-07-12T03:37:41;102446.56;;;16.76;68.53
69455;BME280;56660;51.986;5.930;2022-07-12T03:40:12;102445.69;;;16.75;68.53
69455;BME280;56660;51.986;5.930;2022-07-12T03:42:58;102443.16;;;16.74;68.31
69455;BME280;56660;51.986;5.930;2022-07-12T03:45:29;102452.81;;;16.76;68.36
69455;BME280;56660;51.986;5.930;2022-07-12T03:48:03;102459.91;;;16.77;69.11
69455;BME280;56660;51.986;5.930;2022-07-12T03:50:29;102450.81;;;16.78;68.86
69455;BME280;56660;51.986;5.930;2022-07-12T03:52:55;102452.50;;;16.79;68.96
69455;BME280;56660;51.986;5.930;2022-07-12T03:55:20;102443.56;;;16.79;69.10
69455;BME280;56660;51.986;5.930;2022-07-12T03:57:48;102445.25;;;16.80;69.13
69455;BME280;56660;51.986;5.930;2022-07-12T04:00:16;102441.72;;;16.79;69.30
69455;BME280;56660;51.986;5.930;2022-07-12T04:02:42;102438.84;;;16.81;69.26
69455;BME280;56660;51.986;5.930;2022-07-12T04:05:16;102429.91;;;16.80;69.21
69455;BME280;56660;51.986;5.930;2022-07-12T04:07:41;102434.44;;;16.80;69.41
69455;BME280;56660;51.986;5.930;2022-07-12T04:10:08;102436.16;;;16.81;69.99
69455;BME280;56660;51.986;5.930;2022-07-12T04:12:37;102432.16;;;16.85;70.21
69455;BME280;56660;51.986;5.930;2022-07-12T04:15:07;102434.88;;;16.85;70.44
69455;BME280;56660;51.986;5.930;2022-07-12T04:17:40;102433.00;;;16.85;70.86
69455;BME280;56660;51.986;5.930;2022-07-12T04:22:56;102437.28;;;16.88;71.03
69455;BME280;56660;51.986;5.930;2022-07-12T04:25:22;102440.69;;;16.90;70.88
69455;BME280;56660;51.986;5.930;2022-07-12T04:27:50;102448.03;;;16.97;70.79
69455;BME280;56660;51.986;5.930;2022-07-12T04:30:18;102446.84;;;17.10;71.07
69455;BME280;56660;51.986;5.930;2022-07-12T04:32:43;102443.41;;;17.17;70.72
69455;BME280;56660;51.986;5.930;2022-07-12T04:35:10;102453.47;;;17.25;70.88
69455;BME280;56660;51.986;5.930;2022-07-12T04:37:41;102459.00;;;17.33;70.87
69455;BME280;56660;51.986;5.930;2022-07-12T04:40:11;102462.50;;;17.43;70.74
69455;BME280;56660;51.986;5.930;2022-07-12T04:42:52;102474.97;;;17.54;71.01
69455;BME280;56660;51.986;5.930;2022-07-12T04:45:23;102469.50;;;17.63;70.61
69455;BME280;56660;51.986;5.930;2022-07-12T04:47:50;102464.06;;;17.73;70.55
69455;BME280;56660;51.986;5.930;2022-07-12T04:50:19;102462.97;;;17.84;70.70
69455;BME280;56660;51.986;5.930;2022-07-12T04:52:53;102461.38;;;17.91;70.64
69455;BME280;56660;51.986;5.930;2022-07-12T04:55:38;102446.91;;;18.00;70.58
69455;BME280;56660;51.986;5.930;2022-07-12T04:58:09;102453.41;;;18.07;70.53
69455;BME280;56660;51.986;5.930;2022-07-12T05:00:43;102455.88;;;18.18;70.75
69455;BME280;56660;51.986;5.930;2022-07-12T05:03:09;102457.69;;;18.27;70.76
69455;BME280;56660;51.986;5.930;2022-07-12T05:05:34;102460.31;;;18.37;70.86
69455;BME280;56660;51.986;5.930;2022-07-12T05:08:01;102463.91;;;18.46;70.81
69455;BME280;56660;51.986;5.930;2022-07-12T05:10:28;102462.97;;;18.55;70.82
69455;BME280;56660;51.986;5.930;2022-07-12T05:12:54;102468.16;;;18.66;70.78
69455;BME280;56660;51.986;5.930;2022-07-12T05:15:21;102476.72;;;18.79;70.47
69455;BME280;56660;51.986;5.930;2022-07-12T05:17:48;102484.44;;;18.92;70.52
69455;BME280;56660;51.986;5.930;2022-07-12T05:20:17;102479.91;;;19.01;70.27
69455;BME280;56660;51.986;5.930;2022-07-12T05:22:49;102483.69;;;19.08;70.15
69455;BME280;56660;51.986;5.930;2022-07-12T05:25:17;102481.69;;;19.18;70.27
69455;BME280;56660;51.986;5.930;2022-07-12T05:27:45;102490.56;;;19.28;70.33
69455;BME280;56660;51.986;5.930;2022-07-12T05:30:11;102494.53;;;19.42;69.92
69455;BME280;56660;51.986;5.930;2022-07-12T05:32:37;102494.41;;;19.51;70.08
69455;BME280;56660;51.986;5.930;2022-07-12T05:35:04;102499.41;;;19.64;69.78
69455;BME280;56660;51.986;5.930;2022-07-12T05:37:37;102499.25;;;19.74;69.58
69455;BME280;56660;51.986;5.930;2022-07-12T05:40:04;102507.44;;;19.82;69.26
69455;BME280;56660;51.986;5.930;2022-07-12T05:42:31;102508.81;;;19.94;69.39
69455;BME280;56660;51.986;5.930;2022-07-12T05:45:00;102507.66;;;20.05;68.88
69455;BME280;56660;51.986;5.930;2022-07-12T05:47:26;102508.50;;;20.05;68.79
69455;BME280;56660;51.986;5.930;2022-07-12T05:49:52;102516.66;;;20.05;68.75
69455;BME280;56660;51.986;5.930;2022-07-12T05:52:23;102512.56;;;20.01;68.92
69455;BME280;56660;51.986;5.930;2022-07-12T05:54:49;102510.00;;;20.00;68.64
69455;BME280;56660;51.986;5.930;2022-07-12T05:57:16;102512.56;;;20.01;68.95
69455;BME280;56660;51.986;5.930;2022-07-12T05:59:50;102525.81;;;20.12;69.23
69455;BME280;56660;51.986;5.930;2022-07-12T06:02:31;102524.50;;;20.33;69.35
69455;BME280;56660;51.986;5.930;2022-07-12T06:04:57;102527.59;;;20.54;68.83
69455;BME280;56660;51.986;5.930;2022-07-12T06:07:28;102528.44;;;20.79;68.48
69455;BME280;56660;51.986;5.930;2022-07-12T06:09:58;102519.44;;;20.95;68.13
69455;BME280;56660;51.986;5.930;2022-07-12T06:12:25;102525.38;;;21.06;67.47
69455;BME280;56660;51.986;5.930;2022-07-12T06:14:52;102522.81;;;21.13;67.30
69455;BME280;56660;51.986;5.930;2022-07-12T06:17:23;102519.38;;;21.19;67.41
69455;BME280;56660;51.986;5.930;2022-07-12T06:19:49;102524.16;;;21.25;67.03
69455;BME280;56660;51.986;5.930;2022-07-12T06:22:15;102528.56;;;21.34;66.88
69455;BME280;56660;51.986;5.930;2022-07-12T06:24:42;102525.50;;;21.37;66.88
69455;BME280;56660;51.986;5.930;2022-07-12T06:27:09;102531.94;;;21.44;66.59
69455;BME280;56660;51.986;5.930;2022-07-12T06:29:35;102536.66;;;21.50;66.51
69455;BME280;56660;51.986;5.930;2022-07-12T06:32:23;102529.66;;;21.56;66.47
69455;BME280;56660;51.986;5.930;2022-07-12T06:34:48;102531.00;;;21.60;66.35
69455;BME280;56660;51.986;5.930;2022-07-12T06:37:20;102527.22;;;21.69;66.27
69455;BME280;56660;51.986;5.930;2022-07-12T06:39:46;102525.31;;;21.78;65.99
69455;BME280;56660;51.986;5.930;2022-07-12T06:42:13;102505.19;;;21.87;65.91
69455;BME280;56660;51.986;5.930;2022-07-12T06:44:41;102511.91;;;21.99;65.44
69455;BME280;56660;51.986;5.930;2022-07-12T06:47:08;102508.53;;;21.97;65.18
69455;BME280;56660;51.986;5.930;2022-07-12T06:49:38;102510.41;;;21.97;65.37
69455;BME280;56660;51.986;5.930;2022-07-12T06:52:05;102510.56;;;21.95;65.23
69455;BME280;56660;51.986;5.930;2022-07-12T06:54:46;102514.34;;;21.94;65.09
69455;BME280;56660;51.986;5.930;2022-07-12T06:57:13;102504.47;;;21.93;64.99
69455;BME280;56660;51.986;5.930;2022-07-12T06:59:40;102515.66;;;21.98;64.80
69455;BME280;56660;51.986;5.930;2022-07-12T07:02:05;102514.97;;;22.04;64.95
69455;BME280;56660;51.986;5.930;2022-07-12T07:04:31;102517.28;;;22.16;64.84
69455;BME280;56660;51.986;5.930;2022-07-12T07:06:59;102517.53;;;22.29;64.87
69455;BME280;56660;51.986;5.930;2022-07-12T07:09:25;102519.97;;;22.46;64.70
69455;BME280;56660;51.986;5.930;2022-07-12T07:11:56;102513.34;;;22.64;64.21
69455;BME280;56660;51.986;5.930;2022-07-12T07:14:22;102515.44;;;22.76;63.55
69455;BME280;56660;51.986;5.930;2022-07-12T07:16:50;102512.28;;;22.88;63.74
69455;BME280;56660;51.986;5.930;2022-07-12T07:19:27;102514.84;;;23.04;63.53
69455;BME280;56660;51.986;5.930;2022-07-12T07:21:56;102517.22;;;23.22;63.32
69455;BME280;56660;51.986;5.930;2022-07-12T07:24:29;102515.13;;;23.38;63.17
69455;BME280;56660;51.986;5.930;2022-07-12T07:26:55;102515.00;;;23.55;63.00
69455;BME280;56660;51.986;5.930;2022-07-12T07:29:21;102506.66;;;23.78;62.64
69455;BME280;56660;51.986;5.930;2022-07-12T07:31:47;102511.97;;;24.00;62.64
69455;BME280;56660;51.986;5.930;2022-07-12T07:34:13;102518.69;;;24.19;62.32
69455;BME280;56660;51.986;5.930;2022-07-12T07:36:44;102519.31;;;24.36;61.66
69455;BME280;56660;51.986;5.930;2022-07-12T07:39:10;102520.88;;;24.45;61.25
69455;BME280;56660;51.986;5.930;2022-07-12T07:41:46;102516.97;;;24.54;60.62
69455;BME280;56660;51.986;5.930;2022-07-12T07:44:18;102516.56;;;24.57;60.88
69455;BME280;56660;51.986;5.930;2022-07-12T07:46:46;102514.03;;;24.56;60.48
69455;BME280;56660;51.986;5.930;2022-07-12T07:49:12;102516.97;;;24.54;60.25
69455;BME280;56660;51.986;5.930;2022-07-12T07:51:38;102516.06;;;24.47;60.13
69455;BME280;56660;51.986;5.930;2022-07-12T07:54:05;102523.16;;;24.42;59.79
69455;BME280;56660;51.986;5.930;2022-07-12T07:56:34;102515.03;;;24.27;60.05
69455;BME280;56660;51.986;5.930;2022-07-12T07:59:05;102513.44;;;24.18;59.92
69455;BME280;56660;51.986;5.930;2022-07-12T08:01:39;102509.00;;;24.17;59.54
69455;BME280;56660;51.986;5.930;2022-07-12T08:04:05;102502.09;;;24.21;59.75
69455;BME280;56660;51.986;5.930;2022-07-12T08:06:51;102514.63;;;24.30;59.73
69455;BME280;56660;51.986;5.930;2022-07-12T08:09:17;102510.72;;;24.39;59.38
69455;BME280;56660;51.986;5.930;2022-07-12T08:11:48;102509.59;;;24.55;59.79
69455;BME280;56660;51.986;5.930;2022-07-12T08:14:15;102507.81;;;24.68;59.33
69455;BME280;56660;51.986;5.930;2022-07-12T08:16:44;102508.09;;;24.74;58.55
69455;BME280;56660;51.986;5.930;2022-07-12T08:19:11;102508.09;;;24.74;58.63
69455;BME280;56660;51.986;5.930;2022-07-12T08:21:44;102509.78;;;24.75;58.13
69455;BME280;56660;51.986;5.930;2022-07-12T08:24:29;102499.88;;;24.74;58.24
69455;BME280;56660;51.986;5.930;2022-07-12T08:27:05;102508.56;;;24.84;58.48
69455;BME280;56660;51.986;5.930;2022-07-12T08:29:31;102502.31;;;24.90;57.81
69455;BME280;56660;51.986;5.930;2022-07-12T08:31:59;102503.41;;;24.95;57.84
69455;BME280;56660;51.986;5.930;2022-07-12T08:34:39;102511.88;;;25.00;56.84
69455;BME280;56660;51.986;5.930;2022-07-12T08:37:06;102511.50;;;25.04;57.03
69455;BME280;56660;51.986;5.930;2022-07-12T08:39:52;102510.25;;;25.06;57.55
69455;BME280;56660;51.986;5.930;2022-07-12T08:42:20;102512.38;;;25.11;56.95
69455;BME280;56660;51.986;5.930;2022-07-12T08:44:55;102522.28;;;25.12;56.28
69455;BME280;56660;51.986;5.930;2022-07-12T08:47:43;102512.19;;;25.12;56.81
69455;BME280;56660;51.986;5.930;2022-07-12T08:50:15;102517.00;;;25.10;56.78
69455;BME280;56660;51.986;5.930;2022-07-12T08:52:44;102525.47;;;25.15;56.79
69455;BME280;56660;51.986;5.930;2022-07-12T08:55:22;102525.75;;;25.27;56.49
69455;BME280;56660;51.986;5.930;2022-07-12T08:58:15;102528.13;;;25.37;55.69
69455;BME280;56660;51.986;5.930;2022-07-12T09:00:44;102528.56;;;25.40;56.14
69455;BME280;56660;51.986;5.930;2022-07-12T09:03:10;102531.56;;;25.52;55.39
69455;BME280;56660;51.986;5.930;2022-07-12T09:05:48;102527.59;;;25.61;54.89
69455;BME280;56660;51.986;5.930;2022-07-12T09:08:15;102531.25;;;25.68;54.86
69455;BME280;56660;51.986;5.930;2022-07-12T09:10:54;102518.22;;;25.77;54.88
69455;BME280;56660;51.986;5.930;2022-07-12T09:13:51;102524.19;;;25.93;54.03
69455;BME280;56660;51.986;5.930;2022-07-12T09:16:39;102519.59;;;26.01;54.30
69455;BME280;56660;51.986;5.930;2022-07-12T09:19:13;102517.31;;;26.11;54.29
69455;BME280;56660;51.986;5.930;2022-07-12T09:22:23;102515.00;;;26.21;52.91
69455;BME280;56660;51.986;5.930;2022-07-12T09:24:56;102511.84;;;26.24;53.83
69455;BME280;56660;51.986;5.930;2022-07-12T09:27:27;102510.78;;;26.32;53.85
69455;BME280;56660;51.986;5.930;2022-07-12T09:29:54;102509.16;;;26.37;53.47
69455;BME280;56660;51.986;5.930;2022-07-12T09:32:57;102507.25;;;26.38;53.08
69455;BME280;56660;51.986;5.930;2022-07-12T09:36:06;102499.88;;;26.45;53.11
69455;BME280;56660;51.986;5.930;2022-07-12T09:38:34;102503.47;;;26.52;53.32
69455;BME280;56660;51.986;5.930;2022-07-12T09:41:05;102487.84;;;26.66;52.90
69455;BME280;56660;51.986;5.930;2022-07-12T09:43:33;102502.19;;;26.74;52.76
69455;BME280;56660;51.986;5.930;2022-07-12T09:46:26;102495.63;;;26.82;52.67
69455;BME280;56660;51.986;5.930;2022-07-12T09:48:56;102498.78;;;26.92;52.80
69455;BME280;56660;51.986;5.930;2022-07-12T09:51:24;102498.16;;;27.03;52.64
69455;BME280;56660;51.986;5.930;2022-07-12T09:54:24;102489.50;;;27.13;51.63
69455;BME280;56660;51.986;5.930;2022-07-12T09:56:53;102486.50;;;27.21;52.13
69455;BME280;56660;51.986;5.930;2022-07-12T09:59:24;102478.25;;;27.28;51.91
69455;BME280;56660;51.986;5.930;2022-07-12T10:02:00;102481.16;;;27.39;51.24
69455;BME280;56660;51.986;5.930;2022-07-12T10:04:30;102473.75;;;27.46;50.89
69455;BME280;56660;51.986;5.930;2022-07-12T10:06:58;102477.31;;;27.53;51.15
69455;BME280;56660;51.986;5.930;2022-07-12T10:09:27;102478.16;;;27.61;50.79
69455;BME280;56660;51.986;5.930;2022-07-12T10:12:03;102475.59;;;27.66;51.06
69455;BME280;56660;51.986;5.930;2022-07-12T10:14:32;102480.59;;;27.75;50.30
69455;BME280;56660;51.986;5.930;2022-07-12T10:17:06;102480.59;;;27.75;49.47
69455;BME280;56660;51.986;5.930;2022-07-12T10:19:35;102485.84;;;27.83;50.20
69455;BME280;56660;51.986;5.930;2022-07-12T10:22:07;102484.09;;;27.96;50.32
69455;BME280;56660;51.986;5.930;2022-07-12T10:24:52;102477.88;;;28.07;49.00
69455;BME280;56660;51.986;5.930;2022-07-12T10:27:33;102479.56;;;28.08;49.28
69455;BME280;56660;51.986;5.930;2022-07-12T10:30:20;102486.03;;;28.20;48.92
69455;BME280;56660;51.986;5.930;2022-07-12T10:32:59;102485.81;;;28.28;48.90
69455;BME280;56660;51.986;5.930;2022-07-12T10:35:26;102479.56;;;28.39;49.00
69455;BME280;56660;51.986;5.930;2022-07-12T10:38:19;102479.06;;;28.49;46.93
69455;BME280;56660;51.986;5.930;2022-07-12T10:40:47;102479.28;;;28.47;48.09
69455;BME280;56660;51.986;5.930;2022-07-12T10:43:26;102486.19;;;28.57;46.93
69455;BME280;56660;51.986;5.930;2022-07-12T10:45:55;102477.06;;;28.63;47.33
69455;BME280;56660;51.986;5.930;2022-07-12T10:52:24;102479.00;;;28.87;46.30
69455;BME280;56660;51.986;5.930;2022-07-12T10:55:16;102476.78;;;28.96;46.40
69455;BME280;56660;51.986;5.930;2022-07-12T10:57:44;102480.09;;;29.04;46.59
69455;BME280;56660;51.986;5.930;2022-07-12T11:00:14;102467.84;;;29.19;46.15
69455;BME280;56660;51.986;5.930;2022-07-12T11:02:40;102476.78;;;29.32;45.92
69455;BME280;56660;51.986;5.930;2022-07-12T11:05:29;102485.16;;;29.44;43.89
69455;BME280;56660;51.986;5.930;2022-07-12T11:07:55;102474.28;;;29.49;45.55
69455;BME280;56660;51.986;5.930;2022-07-12T11:10:24;102478.56;;;29.63;45.41
69455;BME280;56660;51.986;5.930;2022-07-12T11:12:50;102483.88;;;29.76;45.61
69455;BME280;56660;51.986;5.930;2022-07-12T11:15:16;102485.84;;;29.88;45.33
69455;BME280;56660;51.986;5.930;2022-07-12T11:17:42;102481.84;;;30.02;44.85
69455;BME280;56660;51.986;5.930;2022-07-12T11:20:10;102478.66;;;30.17;45.30
69455;BME280;56660;51.986;5.930;2022-07-12T11:22:40;102481.69;;;30.38;44.77
69455;BME280;56660;51.986;5.930;2022-07-12T11:25:10;102475.47;;;30.55;44.87
69455;BME280;56660;51.986;5.930;2022-07-12T11:27:41;102473.22;;;30.75;44.40
69455;BME280;56660;51.986;5.930;2022-07-12T11:30:08;102478.63;;;30.93;44.79
69455;BME280;56660;51.986;5.930;2022-07-12T11:32:38;102470.34;;;31.17;44.43
69455;BME280;56660;51.986;5.930;2022-07-12T11:35:25;102476.22;;;31.32;43.28
69455;BME280;56660;51.986;5.930;2022-07-12T11:37:56;102479.78;;;31.44;44.22
69455;BME280;56660;51.986;5.930;2022-07-12T11:40:24;102466.03;;;31.61;43.06
69455;BME280;56660;51.986;5.930;2022-07-12T11:42:55;102461.41;;;31.78;43.01
69455;BME280;56660;51.986;5.930;2022-07-12T11:45:22;102470.09;;;31.98;41.62
69455;BME280;56660;51.986;5.930;2022-07-12T11:48:13;102476.06;;;32.07;39.58
69455;BME280;56660;51.986;5.930;2022-07-12T11:50:42;102461.72;;;32.10;40.35
69455;BME280;56660;51.986;5.930;2022-07-12T11:53:15;102456.03;;;32.17;39.46
69455;BME280;56660;51.986;5.930;2022-07-12T11:55:45;102463.69;;;32.26;40.72
69455;BME280;56660;51.986;5.930;2022-07-12T11:58:19;102464.38;;;32.50;40.96
69455;BME280;56660;51.986;5.930;2022-07-12T12:00:54;102453.94;;;32.74;38.72
69455;BME280;56660;51.986;5.930;2022-07-12T12:03:22;102458.56;;;32.85;39.71
69455;BME280;56660;51.986;5.930;2022-07-12T12:05:52;102452.31;;;32.95;40.06
69455;BME280;56660;51.986;5.930;2022-07-12T12:08:43;102453.34;;;33.11;40.24
69455;BME280;56660;51.986;5.930;2022-07-12T12:11:11;102454.53;;;33.37;39.99
69455;BME280;56660;51.986;5.930;2022-07-12T12:13:39;102443.06;;;33.50;39.44
69455;BME280;56660;51.986;5.930;2022-07-12T12:16:33;102444.06;;;33.66;39.71
69455;BME280;56660;51.986;5.930;2022-07-12T12:19:10;102432.69;;;33.89;37.63
69455;BME280;56660;51.986;5.930;2022-07-12T12:21:36;102440.59;;;34.02;38.13
69455;BME280;56660;51.986;5.930;2022-07-12T12:24:13;102439.53;;;34.08;37.12
69455;BME280;56660;51.986;5.930;2022-07-12T12:26:40;102433.50;;;34.16;37.77
69455;BME280;56660;51.986;5.930;2022-07-12T12:29:10;102432.59;;;34.38;37.58
69455;BME280;56660;51.986;5.930;2022-07-12T12:31:36;102428.53;;;34.56;37.21
69455;BME280;56660;51.986;5.930;2022-07-12T12:34:29;102425.31;;;34.74;37.05
69455;BME280;56660;51.986;5.930;2022-07-12T12:37:00;102417.63;;;34.86;37.06
69455;BME280;56660;51.986;5.930;2022-07-12T12:39:52;102429.41;;;35.03;36.18
69455;BME280;56660;51.986;5.930;2022-07-12T12:42:43;102427.50;;;35.19;34.84
69455;BME280;56660;51.986;5.930;2022-07-12T12:45:31;102424.13;;;35.07;35.47
69455;BME280;56660;51.986;5.930;2022-07-12T12:48:01;102424.38;;;35.00;35.28
69455;BME280;56660;51.986;5.930;2022-07-12T12:50:51;102424.16;;;35.12;33.92
69455;BME280;56660;51.986;5.930;2022-07-12T12:53:20;102425.03;;;35.28;35.29
69455;BME280;56660;51.986;5.930;2022-07-12T12:55:53;102425.41;;;35.47;34.16
69455;BME280;56660;51.986;5.930;2022-07-12T12:58:28;102428.25;;;35.72;32.30
69455;BME280;56660;51.986;5.930;2022-07-12T13:00:55;102432.75;;;35.88;34.18
69455;BME280;56660;51.986;5.930;2022-07-12T13:03:24;102431.34;;;35.96;32.80
69455;BME280;56660;51.986;5.930;2022-07-12T13:06:13;102426.34;;;35.93;33.87
69455;BME280;56660;51.986;5.930;2022-07-12T13:08:40;102417.72;;;36.09;34.27
69455;BME280;56660;51.986;5.930;2022-07-12T13:11:11;102421.03;;;36.27;32.68
69455;BME280;56660;51.986;5.930;2022-07-12T13:13:39;102434.97;;;36.27;32.17
69455;BME280;56660;51.986;5.930;2022-07-12T13:16:06;102421.59;;;36.24;33.24
69455;BME280;56660;51.986;5.930;2022-07-12T13:18:39;102419.97;;;36.28;32.55
69455;BME280;56660;51.986;5.930;2022-07-12T13:21:06;102423.31;;;36.30;32.48